KSAR/SAR METAR and TAF weather

Enter ICAO airport designator
Station Type Date Time Source
KSAR METAR 2019/06/23 21:35 UTC NOAA

KSAR 232135Z AUTO 17007G14KT 10SM CLR 24/23 A2972 RMK AO2 LTG DSNT SE T02380233


Station Type Date Time Source
KSAR Decoded METAR 2019/06/23 21:35 UTC NOAA

Sparta, Sparta Community-Hunter Field Airport, IL, United States (KSAR) 38-08-56N 089-41-55W
Jun 23, 2019 - 05:35 PM EDT / 2019.06.23 2135 UTC
Wind: from the S (170 degrees) at 8 MPH (7 KT) gusting to 16 MPH (14 KT):0
Visibility: 10 mile(s):0
Sky conditions: clear
Weather: Lightning observed
Temperature: 74.8 F (23.8 C)
Dew Point: 73.9 F (23.3 C)
Relative Humidity: 97%
Pressure (altimeter): 29.72 in. Hg (1006 hPa)
ob: KSAR 232135Z AUTO 17007G14KT 10SM CLR 24/23 A2972 RMK AO2 LTG DSNT SE T02380233
cycle: 21

Station Type Date Time Source
KSAR TAF UTC NOAA

Error!

Example: see airport list